sensor_id;sensor_type;location;lat;lon;timestamp;temperature;humidity
40534;DHT22;26233;51.894;10.192;2023-03-01T00:01:12;0.80;33.00
40534;DHT22;26233;51.894;10.192;2023-03-01T00:03:41;0.90;33.20
40534;DHT22;26233;51.894;10.192;2023-03-01T00:06:08;0.80;33.10
40534;DHT22;26233;51.894;10.192;2023-03-01T00:08:36;0.80;33.20
40534;DHT22;26233;51.894;10.192;2023-03-01T00:11:06;0.80;33.00
40534;DHT22;26233;51.894;10.192;2023-03-01T00:13:35;0.80;33.20
40534;DHT22;26233;51.894;10.192;2023-03-01T00:16:03;0.80;33.20
40534;DHT22;26233;51.894;10.192;2023-03-01T00:18:30;0.80;33.70
40534;DHT22;26233;51.894;10.192;2023-03-01T00:20:58;0.80;33.20
40534;DHT22;26233;51.894;10.192;2023-03-01T00:23:25;0.70;33.10
40534;DHT22;26233;51.894;10.192;2023-03-01T00:25:53;0.70;33.00
40534;DHT22;26233;51.894;10.192;2023-03-01T00:28:22;0.70;33.10
40534;DHT22;26233;51.894;10.192;2023-03-01T00:30:49;0.70;33.10
40534;DHT22;26233;51.894;10.192;2023-03-01T00:33:16;0.60;32.90
40534;DHT22;26233;51.894;10.192;2023-03-01T00:35:44;0.60;33.20
40534;DHT22;26233;51.894;10.192;2023-03-01T00:38:11;0.60;33.30
40534;DHT22;26233;51.894;10.192;2023-03-01T00:40:38;0.60;33.20
40534;DHT22;26233;51.894;10.192;2023-03-01T00:43:05;0.60;33.10
40534;DHT22;26233;51.894;10.192;2023-03-01T00:45:34;0.60;33.30
40534;DHT22;26233;51.894;10.192;2023-03-01T00:48:01;0.50;33.20
40534;DHT22;26233;51.894;10.192;2023-03-01T00:50:28;0.50;33.20
40534;DHT22;26233;51.894;10.192;2023-03-01T00:52:56;0.50;33.30
40534;DHT22;26233;51.894;10.192;2023-03-01T00:55:23;0.50;33.30
40534;DHT22;26233;51.894;10.192;2023-03-01T00:57:51;0.60;33.60
40534;DHT22;26233;51.894;10.192;2023-03-01T01:00:19;0.60;33.60
40534;DHT22;26233;51.894;10.192;2023-03-01T01:02:48;0.60;33.60
40534;DHT22;26233;51.894;10.192;2023-03-01T01:05:15;0.60;33.60
40534;DHT22;26233;51.894;10.192;2023-03-01T01:07:46;0.60;33.50
40534;DHT22;26233;51.894;10.192;2023-03-01T01:10:13;0.60;33.60
40534;DHT22;26233;51.894;10.192;2023-03-01T01:12:43;0.60;33.50
40534;DHT22;26233;51.894;10.192;2023-03-01T01:15:10;0.60;33.50
40534;DHT22;26233;51.894;10.192;2023-03-01T01:17:39;0.60;33.50
40534;DHT22;26233;51.894;10.192;2023-03-01T01:20:09;0.50;33.30
40534;DHT22;26233;51.894;10.192;2023-03-01T01:22:37;0.50;33.50
40534;DHT22;26233;51.894;10.192;2023-03-01T01:25:05;0.50;33.50
40534;DHT22;26233;51.894;10.192;2023-03-01T01:27:32;0.50;33.50
40534;DHT22;26233;51.894;10.192;2023-03-01T01:29:59;0.50;33.60
40534;DHT22;26233;51.894;10.192;2023-03-01T01:32:26;0.50;34.10
40534;DHT22;26233;51.894;10.192;2023-03-01T01:34:53;0.50;33.60
40534;DHT22;26233;51.894;10.192;2023-03-01T01:37:22;0.40;33.50
40534;DHT22;26233;51.894;10.192;2023-03-01T01:39:57;0.40;33.50
40534;DHT22;26233;51.894;10.192;2023-03-01T01:42:24;0.40;33.50
40534;DHT22;26233;51.894;10.192;2023-03-01T01:45:26;0.40;34.20
40534;DHT22;26233;51.894;10.192;2023-03-01T01:47:58;0.40;33.70
40534;DHT22;26233;51.894;10.192;2023-03-01T01:50:27;0.40;33.70
40534;DHT22;26233;51.894;10.192;2023-03-01T01:53:05;0.50;33.70
40534;DHT22;26233;51.894;10.192;2023-03-01T01:55:36;0.50;33.80
40534;DHT22;26233;51.894;10.192;2023-03-01T01:58:05;0.50;33.70
40534;DHT22;26233;51.894;10.192;2023-03-01T02:00:33;0.50;33.60
40534;DHT22;26233;51.894;10.192;2023-03-01T02:03:04;0.50;33.60
40534;DHT22;26233;51.894;10.192;2023-03-01T02:05:38;0.40;33.50
40534;DHT22;26233;51.894;10.192;2023-03-01T02:08:12;0.40;33.60
40534;DHT22;26233;51.894;10.192;2023-03-01T02:10:41;0.40;33.80
40534;DHT22;26233;51.894;10.192;2023-03-01T02:13:09;0.40;33.60
40534;DHT22;26233;51.894;10.192;2023-03-01T02:15:38;0.30;33.50
40534;DHT22;26233;51.894;10.192;2023-03-01T02:18:07;0.30;33.70
40534;DHT22;26233;51.894;10.192;2023-03-01T02:20:39;0.30;33.40
40534;DHT22;26233;51.894;10.192;2023-03-01T02:23:13;0.20;33.50
40534;DHT22;26233;51.894;10.192;2023-03-01T02:25:47;0.20;33.60
40534;DHT22;26233;51.894;10.192;2023-03-01T02:28:30;0.10;33.50
40534;DHT22;26233;51.894;10.192;2023-03-01T02:30:58;0.10;33.60
40534;DHT22;26233;51.894;10.192;2023-03-01T02:33:43;0.10;33.60
40534;DHT22;26233;51.894;10.192;2023-03-01T02:36:15;0.00;33.50
40534;DHT22;26233;51.894;10.192;2023-03-01T02:38:44;0.00;33.70
40534;DHT22;26233;51.894;10.192;2023-03-01T02:41:15;0.10;33.90
40534;DHT22;26233;51.894;10.192;2023-03-01T02:43:44;0.10;34.50
40534;DHT22;26233;51.894;10.192;2023-03-01T02:46:15;0.10;33.70
40534;DHT22;26233;51.894;10.192;2023-03-01T02:48:44;0.10;34.50
40534;DHT22;26233;51.894;10.192;2023-03-01T02:51:22;0.10;33.90
40534;DHT22;26233;51.894;10.192;2023-03-01T02:54:08;0.10;33.90
40534;DHT22;26233;51.894;10.192;2023-03-01T02:56:39;0.10;33.90
40534;DHT22;26233;51.894;10.192;2023-03-01T02:59:09;0.00;33.50
40534;DHT22;26233;51.894;10.192;2023-03-01T03:01:37;0.00;33.50
40534;DHT22;26233;51.894;10.192;2023-03-01T03:04:05;-0.10;33.50
40534;DHT22;26233;51.894;10.192;2023-03-01T03:06:33;-0.10;33.60
40534;DHT22;26233;51.894;10.192;2023-03-01T03:09:02;-0.10;34.20
40534;DHT22;26233;51.894;10.192;2023-03-01T03:11:29;-0.10;33.80
40534;DHT22;26233;51.894;10.192;2023-03-01T03:13:57;-0.20;33.70
40534;DHT22;26233;51.894;10.192;2023-03-01T03:16:26;-0.20;33.80
40534;DHT22;26233;51.894;10.192;2023-03-01T03:18:55;-0.10;34.00
40534;DHT22;26233;51.894;10.192;2023-03-01T03:21:30;-0.10;33.80
40534;DHT22;26233;51.894;10.192;2023-03-01T03:23:57;-0.20;33.70
40534;DHT22;26233;51.894;10.192;2023-03-01T03:26:24;-0.20;33.90
40534;DHT22;26233;51.894;10.192;2023-03-01T03:28:52;-0.20;33.90
40534;DHT22;26233;51.894;10.192;2023-03-01T03:31:19;-0.20;33.90
40534;DHT22;26233;51.894;10.192;2023-03-01T03:33:47;-0.20;33.90
40534;DHT22;26233;51.894;10.192;2023-03-01T03:36:15;-0.20;33.90
40534;DHT22;26233;51.894;10.192;2023-03-01T03:38:43;-0.20;33.70
40534;DHT22;26233;51.894;10.192;2023-03-01T03:41:11;-0.20;33.90
40534;DHT22;26233;51.894;10.192;2023-03-01T03:43:40;-0.20;33.70
40534;DHT22;26233;51.894;10.192;2023-03-01T03:46:09;-0.30;33.60
40534;DHT22;26233;51.894;10.192;2023-03-01T03:48:38;-0.30;33.80
40534;DHT22;26233;51.894;10.192;2023-03-01T03:51:10;-0.30;33.90
40534;DHT22;26233;51.894;10.192;2023-03-01T03:53:37;-0.30;33.90
40534;DHT22;26233;51.894;10.192;2023-03-01T03:56:06;-0.30;33.90
40534;DHT22;26233;51.894;10.192;2023-03-01T03:58:33;-0.30;34.00
40534;DHT22;26233;51.894;10.192;2023-03-01T04:01:01;-0.30;34.10
40534;DHT22;26233;51.894;10.192;2023-03-01T04:03:29;-0.30;34.20
40534;DHT22;26233;51.894;10.192;2023-03-01T04:05:58;-0.30;34.10
40534;DHT22;26233;51.894;10.192;2023-03-01T04:08:27;-0.30;34.10
40534;DHT22;26233;51.894;10.192;2023-03-01T04:10:58;-0.40;34.10
40534;DHT22;26233;51.894;10.192;2023-03-01T04:13:47;-0.30;34.20
40534;DHT22;26233;51.894;10.192;2023-03-01T04:16:14;-0.40;34.10
40534;DHT22;26233;51.894;10.192;2023-03-01T04:18:41;-0.30;34.20
40534;DHT22;26233;51.894;10.192;2023-03-01T04:21:08;-0.40;34.00
40534;DHT22;26233;51.894;10.192;2023-03-01T04:23:38;-0.40;34.10
40534;DHT22;26233;51.894;10.192;2023-03-01T04:26:06;-0.40;34.10
40534;DHT22;26233;51.894;10.192;2023-03-01T04:28:36;-0.40;34.20
40534;DHT22;26233;51.894;10.192;2023-03-01T04:31:06;-0.40;34.20
40534;DHT22;26233;51.894;10.192;2023-03-01T04:33:39;-0.40;34.20
40534;DHT22;26233;51.894;10.192;2023-03-01T04:36:08;-0.40;34.20
40534;DHT22;26233;51.894;10.192;2023-03-01T04:38:38;-0.40;34.10
40534;DHT22;26233;51.894;10.192;2023-03-01T04:41:06;-0.40;34.10
40534;DHT22;26233;51.894;10.192;2023-03-01T04:43:35;-0.40;34.20
40534;DHT22;26233;51.894;10.192;2023-03-01T04:46:04;-0.40;34.20
40534;DHT22;26233;51.894;10.192;2023-03-01T04:48:34;-0.50;34.10
40534;DHT22;26233;51.894;10.192;2023-03-01T04:51:01;-0.50;34.10
40534;DHT22;26233;51.894;10.192;2023-03-01T04:53:29;-0.50;34.20
40534;DHT22;26233;51.894;10.192;2023-03-01T04:55:57;-0.50;34.20
40534;DHT22;26233;51.894;10.192;2023-03-01T04:58:26;-0.60;34.10
40534;DHT22;26233;51.894;10.192;2023-03-01T05:00:54;-0.60;34.00
40534;DHT22;26233;51.894;10.192;2023-03-01T05:03:21;-0.60;34.10
40534;DHT22;26233;51.894;10.192;2023-03-01T05:05:50;-0.70;34.00
40534;DHT22;26233;51.894;10.192;2023-03-01T05:08:19;-0.70;34.10
40534;DHT22;26233;51.894;10.192;2023-03-01T05:10:48;-0.70;34.10
40534;DHT22;26233;51.894;10.192;2023-03-01T05:13:19;-0.70;34.30
40534;DHT22;26233;51.894;10.192;2023-03-01T05:15:47;-0.70;34.20
40534;DHT22;26233;51.894;10.192;2023-03-01T05:18:15;-0.70;34.20
40534;DHT22;26233;51.894;10.192;2023-03-01T05:20:42;-0.80;34.20
40534;DHT22;26233;51.894;10.192;2023-03-01T05:23:10;-0.80;34.30
40534;DHT22;26233;51.894;10.192;2023-03-01T05:25:37;-0.80;34.20
40534;DHT22;26233;51.894;10.192;2023-03-01T05:28:06;-0.80;34.30
40534;DHT22;26233;51.894;10.192;2023-03-01T05:30:36;-0.80;34.40
40534;DHT22;26233;51.894;10.192;2023-03-01T05:33:05;-0.80;34.50
40534;DHT22;26233;51.894;10.192;2023-03-01T05:35:39;-0.80;34.60
40534;DHT22;26233;51.894;10.192;2023-03-01T05:38:08;-0.80;34.60
40534;DHT22;26233;51.894;10.192;2023-03-01T05:40:38;-0.80;34.60
40534;DHT22;26233;51.894;10.192;2023-03-01T05:43:06;-0.80;34.60
40534;DHT22;26233;51.894;10.192;2023-03-01T05:45:37;-0.80;34.60
40534;DHT22;26233;51.894;10.192;2023-03-01T05:48:06;-0.80;34.60
40534;DHT22;26233;51.894;10.192;2023-03-01T05:50:35;-0.70;34.60
40534;DHT22;26233;51.894;10.192;2023-03-01T05:53:06;-0.80;34.40
40534;DHT22;26233;51.894;10.192;2023-03-01T05:55:35;-0.80;34.40
40534;DHT22;26233;51.894;10.192;2023-03-01T05:58:03;-0.80;34.50
40534;DHT22;26233;51.894;10.192;2023-03-01T06:00:32;-0.80;34.60
40534;DHT22;26233;51.894;10.192;2023-03-01T06:03:01;-0.80;34.50
40534;DHT22;26233;51.894;10.192;2023-03-01T06:05:29;-0.80;34.60
40534;DHT22;26233;51.894;10.192;2023-03-01T06:07:58;-0.90;34.40
40534;DHT22;26233;51.894;10.192;2023-03-01T06:10:26;-0.90;34.50
40534;DHT22;26233;51.894;10.192;2023-03-01T06:12:54;-0.90;34.50
40534;DHT22;26233;51.894;10.192;2023-03-01T06:15:22;-0.90;34.50
40534;DHT22;26233;51.894;10.192;2023-03-01T06:17:50;-0.90;34.60
40534;DHT22;26233;51.894;10.192;2023-03-01T06:20:20;-0.90;34.60
40534;DHT22;26233;51.894;10.192;2023-03-01T06:22:49;-0.90;34.70
40534;DHT22;26233;51.894;10.192;2023-03-01T06:25:18;-0.90;34.70
40534;DHT22;26233;51.894;10.192;2023-03-01T06:27:48;-0.90;34.70
40534;DHT22;26233;51.894;10.192;2023-03-01T06:30:18;-0.90;34.60
40534;DHT22;26233;51.894;10.192;2023-03-01T06:32:47;-0.90;34.60
40534;DHT22;26233;51.894;10.192;2023-03-01T06:35:15;-0.90;34.60
40534;DHT22;26233;51.894;10.192;2023-03-01T06:37:45;-0.90;34.60
40534;DHT22;26233;51.894;10.192;2023-03-01T06:40:13;-0.90;34.70
40534;DHT22;26233;51.894;10.192;2023-03-01T06:42:43;-0.90;34.70
40534;DHT22;26233;51.894;10.192;2023-03-01T06:45:14;-0.90;34.80
40534;DHT22;26233;51.894;10.192;2023-03-01T06:47:41;-0.80;35.10
40534;DHT22;26233;51.894;10.192;2023-03-01T06:50:09;-0.80;35.00
40534;DHT22;26233;51.894;10.192;2023-03-01T06:52:37;-0.80;35.00
40534;DHT22;26233;51.894;10.192;2023-03-01T06:55:06;-0.80;35.00
40534;DHT22;26233;51.894;10.192;2023-03-01T06:57:34;-0.80;34.80
40534;DHT22;26233;51.894;10.192;2023-03-01T07:00:01;-0.80;34.80
40534;DHT22;26233;51.894;10.192;2023-03-01T07:02:29;-0.80;34.80
40534;DHT22;26233;51.894;10.192;2023-03-01T07:04:55;-0.80;35.00
40534;DHT22;26233;51.894;10.192;2023-03-01T07:07:22;-0.70;35.40
40534;DHT22;26233;51.894;10.192;2023-03-01T07:09:50;-0.60;35.80
40534;DHT22;26233;51.894;10.192;2023-03-01T07:12:20;-0.50;36.10
40534;DHT22;26233;51.894;10.192;2023-03-01T07:14:47;-0.30;36.30
40534;DHT22;26233;51.894;10.192;2023-03-01T07:17:14;-0.10;36.40
40534;DHT22;26233;51.894;10.192;2023-03-01T07:19:44;0.10;36.50
40534;DHT22;26233;51.894;10.192;2023-03-01T07:22:11;0.30;36.50
40534;DHT22;26233;51.894;10.192;2023-03-01T07:24:38;0.60;36.70
40534;DHT22;26233;51.894;10.192;2023-03-01T07:27:05;0.70;36.80
40534;DHT22;26233;51.894;10.192;2023-03-01T07:29:33;1.00;36.90
40534;DHT22;26233;51.894;10.192;2023-03-01T07:32:02;1.10;36.70
40534;DHT22;26233;51.894;10.192;2023-03-01T07:34:29;1.30;36.70
40534;DHT22;26233;51.894;10.192;2023-03-01T07:36:56;1.50;37.00
40534;DHT22;26233;51.894;10.192;2023-03-01T07:39:23;1.80;37.40
40534;DHT22;26233;51.894;10.192;2023-03-01T07:41:50;2.10;37.60
40534;DHT22;26233;51.894;10.192;2023-03-01T07:44:18;2.40;37.70
40534;DHT22;26233;51.894;10.192;2023-03-01T07:46:46;2.70;37.60
40534;DHT22;26233;51.894;10.192;2023-03-01T07:49:13;2.90;37.40
40534;DHT22;26233;51.894;10.192;2023-03-01T07:51:40;3.10;37.20
40534;DHT22;26233;51.894;10.192;2023-03-01T07:54:08;3.20;37.00
40534;DHT22;26233;51.894;10.192;2023-03-01T07:56:35;3.30;36.90
40534;DHT22;26233;51.894;10.192;2023-03-01T07:59:02;3.40;36.80
40534;DHT22;26233;51.894;10.192;2023-03-01T08:01:29;3.60;37.20
40534;DHT22;26233;51.894;10.192;2023-03-01T08:03:57;3.80;37.70
40534;DHT22;26233;51.894;10.192;2023-03-01T08:06:24;4.20;38.50
40534;DHT22;26233;51.894;10.192;2023-03-01T08:08:51;4.70;39.00
40534;DHT22;26233;51.894;10.192;2023-03-01T08:11:21;5.10;39.50
40534;DHT22;26233;51.894;10.192;2023-03-01T08:13:48;5.70;40.40
40534;DHT22;26233;51.894;10.192;2023-03-01T08:16:18;6.50;41.70
40534;DHT22;26233;51.894;10.192;2023-03-01T08:18:45;7.20;41.90
40534;DHT22;26233;51.894;10.192;2023-03-01T08:21:15;8.10;42.50
40534;DHT22;26233;51.894;10.192;2023-03-01T08:23:44;8.90;42.40
40534;DHT22;26233;51.894;10.192;2023-03-01T08:26:13;9.60;41.70
40534;DHT22;26233;51.894;10.192;2023-03-01T08:28:41;10.20;39.90
40534;DHT22;26233;51.894;10.192;2023-03-01T08:31:16;10.70;39.50
40534;DHT22;26233;51.894;10.192;2023-03-01T08:33:44;10.90;37.80
40534;DHT22;26233;51.894;10.192;2023-03-01T08:36:17;11.10;37.50
40534;DHT22;26233;51.894;10.192;2023-03-01T08:38:46;11.10;36.70
40534;DHT22;26233;51.894;10.192;2023-03-01T08:41:13;11.10;36.20
40534;DHT22;26233;51.894;10.192;2023-03-01T08:43:40;11.10;35.90
40534;DHT22;26233;51.894;10.192;2023-03-01T08:46:08;11.00;35.70
40534;DHT22;26233;51.894;10.192;2023-03-01T08:48:35;11.00;35.80
40534;DHT22;26233;51.894;10.192;2023-03-01T08:51:09;11.00;36.00
40534;DHT22;26233;51.894;10.192;2023-03-01T08:53:38;11.00;35.70
40534;DHT22;26233;51.894;10.192;2023-03-01T08:56:05;11.00;35.80
40534;DHT22;26233;51.894;10.192;2023-03-01T08:58:33;11.00;35.50
40534;DHT22;26233;51.894;10.192;2023-03-01T09:01:01;11.00;35.70
40534;DHT22;26233;51.894;10.192;2023-03-01T09:03:28;10.90;35.30
40534;DHT22;26233;51.894;10.192;2023-03-01T09:06:00;10.80;35.10
40534;DHT22;26233;51.894;10.192;2023-03-01T09:08:27;10.70;35.00
40534;DHT22;26233;51.894;10.192;2023-03-01T09:10:56;10.70;35.40
40534;DHT22;26233;51.894;10.192;2023-03-01T09:13:23;10.70;35.30
40534;DHT22;26233;51.894;10.192;2023-03-01T09:15:51;10.70;35.70
40534;DHT22;26233;51.894;10.192;2023-03-01T09:18:18;10.90;36.20
40534;DHT22;26233;51.894;10.192;2023-03-01T09:20:45;11.10;36.60
40534;DHT22;26233;51.894;10.192;2023-03-01T09:23:12;11.30;36.70
40534;DHT22;26233;51.894;10.192;2023-03-01T09:25:39;11.50;36.70
40534;DHT22;26233;51.894;10.192;2023-03-01T09:28:07;11.90;37.30
40534;DHT22;26233;51.894;10.192;2023-03-01T09:30:36;12.30;37.70
40534;DHT22;26233;51.894;10.192;2023-03-01T09:33:03;12.70;38.20
40534;DHT22;26233;51.894;10.192;2023-03-01T09:35:30;13.10;38.20
40534;DHT22;26233;51.894;10.192;2023-03-01T09:37:57;13.60;38.30
40534;DHT22;26233;51.894;10.192;2023-03-01T09:40:26;14.10;38.00
40534;DHT22;26233;51.894;10.192;2023-03-01T09:43:01;14.60;38.00
40534;DHT22;26233;51.894;10.192;2023-03-01T09:45:36;15.20;38.30
40534;DHT22;26233;51.894;10.192;2023-03-01T09:48:14;15.80;38.60
40534;DHT22;26233;51.894;10.192;2023-03-01T09:50:44;16.10;37.60
40534;DHT22;26233;51.894;10.192;2023-03-01T09:53:15;16.50;36.80
40534;DHT22;26233;51.894;10.192;2023-03-01T09:55:44;16.50;35.60
40534;DHT22;26233;51.894;10.192;2023-03-01T09:58:29;16.50;34.90
40534;DHT22;26233;51.894;10.192;2023-03-01T10:01:10;16.40;34.40
40534;DHT22;26233;51.894;10.192;2023-03-01T10:03:59;16.40;34.50
40534;DHT22;26233;51.894;10.192;2023-03-01T10:06:31;16.40;34.10
40534;DHT22;26233;51.894;10.192;2023-03-01T10:09:02;16.30;33.70
40534;DHT22;26233;51.894;10.192;2023-03-01T10:11:34;16.10;32.90
40534;DHT22;26233;51.894;10.192;2023-03-01T10:14:05;16.00;33.30
40534;DHT22;26233;51.894;10.192;2023-03-01T10:16:46;15.80;33.10
40534;DHT22;26233;51.894;10.192;2023-03-01T10:19:24;15.70;32.00
40534;DHT22;26233;51.894;10.192;2023-03-01T10:21:58;15.60;32.70
40534;DHT22;26233;51.894;10.192;2023-03-01T10:24:34;15.60;33.30
40534;DHT22;26233;51.894;10.192;2023-03-01T10:27:05;15.60;33.20
40534;DHT22;26233;51.894;10.192;2023-03-01T10:29:39;15.60;33.30
40534;DHT22;26233;51.894;10.192;2023-03-01T10:32:11;15.70;33.50
40534;DHT22;26233;51.894;10.192;2023-03-01T10:34:38;15.80;34.00
40534;DHT22;26233;51.894;10.192;2023-03-01T10:37:11;16.00;34.10
40534;DHT22;26233;51.894;10.192;2023-03-01T10:39:55;16.20;34.00
40534;DHT22;26233;51.894;10.192;2023-03-01T10:42:28;16.30;33.60
40534;DHT22;26233;51.894;10.192;2023-03-01T10:44:56;16.40;33.70
40534;DHT22;26233;51.894;10.192;2023-03-01T10:47:26;16.50;33.50
40534;DHT22;26233;51.894;10.192;2023-03-01T10:49:59;16.50;33.20
40534;DHT22;26233;51.894;10.192;2023-03-01T10:52:31;16.50;32.50
40534;DHT22;26233;51.894;10.192;2023-03-01T10:55:02;16.50;32.60
40534;DHT22;26233;51.894;10.192;2023-03-01T10:57:34;16.60;32.80
40534;DHT22;26233;51.894;10.192;2023-03-01T11:00:23;16.60;33.00
40534;DHT22;26233;51.894;10.192;2023-03-01T11:03:12;16.70;31.80
40534;DHT22;26233;51.894;10.192;2023-03-01T11:05:52;16.70;32.70
40534;DHT22;26233;51.894;10.192;2023-03-01T11:08:33;17.00;32.90
40534;DHT22;26233;51.894;10.192;2023-03-01T11:13:58;17.10;32.40
40534;DHT22;26233;51.894;10.192;2023-03-01T11:16:32;17.10;32.00
40534;DHT22;26233;51.894;10.192;2023-03-01T11:19:18;17.00;31.40
40534;DHT22;26233;51.894;10.192;2023-03-01T11:21:54;17.00;30.90
40534;DHT22;26233;51.894;10.192;2023-03-01T11:24:29;17.00;31.80
40534;DHT22;26233;51.894;10.192;2023-03-01T11:27:16;17.00;31.70
40534;DHT22;26233;51.894;10.192;2023-03-01T11:29:47;17.00;31.30
40534;DHT22;26233;51.894;10.192;2023-03-01T11:32:20;17.00;32.20
40534;DHT22;26233;51.894;10.192;2023-03-01T11:34:54;17.00;31.40
40534;DHT22;26233;51.894;10.192;2023-03-01T11:37:32;16.80;30.40
40534;DHT22;26233;51.894;10.192;2023-03-01T11:40:10;16.60;30.80
40534;DHT22;26233;51.894;10.192;2023-03-01T11:42:53;16.40;30.70
40534;DHT22;26233;51.894;10.192;2023-03-01T11:45:36;16.20;30.40
40534;DHT22;26233;51.894;10.192;2023-03-01T11:48:34;16.10;30.10
40534;DHT22;26233;51.894;10.192;2023-03-01T11:51:18;15.80;30.00
40534;DHT22;26233;51.894;10.192;2023-03-01T11:53:57;15.60;30.10
40534;DHT22;26233;51.894;10.192;2023-03-01T11:56:43;15.40;30.00
40534;DHT22;26233;51.894;10.192;2023-03-01T12:02:46;15.30;30.90
40534;DHT22;26233;51.894;10.192;2023-03-01T12:08:43;15.10;30.50
40534;DHT22;26233;51.894;10.192;2023-03-01T12:11:26;14.90;29.80
40534;DHT22;26233;51.894;10.192;2023-03-01T12:14:13;14.70;29.70
40534;DHT22;26233;51.894;10.192;2023-03-01T12:16:59;14.50;29.70
40534;DHT22;26233;51.894;10.192;2023-03-01T12:19:52;14.30;30.00
40534;DHT22;26233;51.894;10.192;2023-03-01T12:22:49;14.20;29.60
40534;DHT22;26233;51.894;10.192;2023-03-01T12:25:39;14.20;29.60
40534;DHT22;26233;51.894;10.192;2023-03-01T12:28:28;14.10;29.90
40534;DHT22;26233;51.894;10.192;2023-03-01T12:34:49;13.80;29.40
40534;DHT22;26233;51.894;10.192;2023-03-01T12:37:29;13.70;29.20
40534;DHT22;26233;51.894;10.192;2023-03-01T12:40:20;13.50;29.20
40534;DHT22;26233;51.894;10.192;2023-03-01T12:43:21;13.40;29.10
40534;DHT22;26233;51.894;10.192;2023-03-01T12:46:18;13.30;29.30
40534;DHT22;26233;51.894;10.192;2023-03-01T12:49:01;13.20;28.70
40534;DHT22;26233;51.894;10.192;2023-03-01T12:51:36;13.20;29.20
40534;DHT22;26233;51.894;10.192;2023-03-01T12:54:11;13.10;29.20
40534;DHT22;26233;51.894;10.192;2023-03-01T12:56:45;13.00;29.20
40534;DHT22;26233;51.894;10.192;2023-03-01T12:59:21;12.90;29.00
40534;DHT22;26233;51.894;10.192;2023-03-01T13:01:55;12.90;29.20
40534;DHT22;26233;51.894;10.192;2023-03-01T13:04:37;12.90;29.50
40534;DHT22;26233;51.894;10.192;2023-03-01T13:07:30;12.90;29.30
40534;DHT22;26233;51.894;10.192;2023-03-01T13:10:16;12.80;29.10
40534;DHT22;26233;51.894;10.192;2023-03-01T13:13:01;12.80;28.60
40534;DHT22;26233;51.894;10.192;2023-03-01T13:15:36;12.90;28.90
40534;DHT22;26233;51.894;10.192;2023-03-01T13:18:28;12.90;29.40
40534;DHT22;26233;51.894;10.192;2023-03-01T13:21:01;12.90;28.90
40534;DHT22;26233;51.894;10.192;2023-03-01T13:23:34;12.90;29.20
40534;DHT22;26233;51.894;10.192;2023-03-01T13:26:14;12.90;29.00
40534;DHT22;26233;51.894;10.192;2023-03-01T13:29:01;12.90;29.10
40534;DHT22;26233;51.894;10.192;2023-03-01T13:31:58;12.80;29.00
40534;DHT22;26233;51.894;10.192;2023-03-01T13:34:50;12.80;28.50
40534;DHT22;26233;51.894;10.192;2023-03-01T13:37:29;12.80;28.90
40534;DHT22;26233;51.894;10.192;2023-03-01T13:40:02;12.70;28.70
40534;DHT22;26233;51.894;10.192;2023-03-01T13:42:40;12.70;28.90
40534;DHT22;26233;51.894;10.192;2023-03-01T13:45:21;12.50;28.90
40534;DHT22;26233;51.894;10.192;2023-03-01T13:47:55;12.50;28.70
40534;DHT22;26233;51.894;10.192;2023-03-01T13:50:25;12.40;28.70
40534;DHT22;26233;51.894;10.192;2023-03-01T13:52:57;12.40;28.90
40534;DHT22;26233;51.894;10.192;2023-03-01T13:55:34;12.40;28.90
40534;DHT22;26233;51.894;10.192;2023-03-01T13:58:14;12.40;28.50
40534;DHT22;26233;51.894;10.192;2023-03-01T14:00:44;12.30;28.70
40534;DHT22;26233;51.894;10.192;2023-03-01T14:03:15;12.30;28.40
40534;DHT22;26233;51.894;10.192;2023-03-01T14:05:57;12.20;28.70
40534;DHT22;26233;51.894;10.192;2023-03-01T14:08:28;12.20;28.60
40534;DHT22;26233;51.894;10.192;2023-03-01T14:11:20;12.10;28.70
40534;DHT22;26233;51.894;10.192;2023-03-01T14:14:29;12.00;28.40
40534;DHT22;26233;51.894;10.192;2023-03-01T14:17:11;12.00;29.10
40534;DHT22;26233;51.894;10.192;2023-03-01T14:19:55;11.90;28.60
40534;DHT22;26233;51.894;10.192;2023-03-01T14:22:24;11.90;28.60
40534;DHT22;26233;51.894;10.192;2023-03-01T14:24:57;11.90;28.30
40534;DHT22;26233;51.894;10.192;2023-03-01T14:27:27;11.90;28.40
40534;DHT22;26233;51.894;10.192;2023-03-01T14:29:58;11.80;28.20
40534;DHT22;26233;51.894;10.192;2023-03-01T14:32:29;11.70;28.10
40534;DHT22;26233;51.894;10.192;2023-03-01T14:34:59;11.60;28.30
40534;DHT22;26233;51.894;10.192;2023-03-01T14:37:29;11.50;28.60
40534;DHT22;26233;51.894;10.192;2023-03-01T14:39:59;11.50;28.40
40534;DHT22;26233;51.894;10.192;2023-03-01T14:42:30;11.50;28.50
40534;DHT22;26233;51.894;10.192;2023-03-01T14:45:02;11.40;28.40
40534;DHT22;26233;51.894;10.192;2023-03-01T14:47:34;11.40;28.50
40534;DHT22;26233;51.894;10.192;2023-03-01T14:50:07;11.30;28.40
40534;DHT22;26233;51.894;10.192;2023-03-01T14:52:39;11.30;28.30
40534;DHT22;26233;51.894;10.192;2023-03-01T14:55:12;11.20;28.10
40534;DHT22;26233;51.894;10.192;2023-03-01T14:57:45;11.10;28.20
40534;DHT22;26233;51.894;10.192;2023-03-01T15:00:18;11.00;28.30
40534;DHT22;26233;51.894;10.192;2023-03-01T15:02:50;11.00;28.30
40534;DHT22;26233;51.894;10.192;2023-03-01T15:05:22;11.00;28.30
40534;DHT22;26233;51.894;10.192;2023-03-01T15:07:53;10.90;28.30
40534;DHT22;26233;51.894;10.192;2023-03-01T15:10:23;10.90;28.30
40534;DHT22;26233;51.894;10.192;2023-03-01T15:12:51;10.90;28.30
40534;DHT22;26233;51.894;10.192;2023-03-01T15:15:21;10.80;28.30
40534;DHT22;26233;51.894;10.192;2023-03-01T15:18:00;10.70;28.30
40534;DHT22;26233;51.894;10.192;2023-03-01T15:20:29;10.70;28.30
40534;DHT22;26233;51.894;10.192;2023-03-01T15:23:01;10.60;28.10
40534;DHT22;26233;51.894;10.192;2023-03-01T15:25:30;10.50;28.20
40534;DHT22;26233;51.894;10.192;2023-03-01T15:28:00;10.30;28.10
40534;DHT22;26233;51.894;10.192;2023-03-01T15:30:30;10.20;28.10
40534;DHT22;26233;51.894;10.192;2023-03-01T15:33:27;10.10;28.00
40534;DHT22;26233;51.894;10.192;2023-03-01T15:35:57;10.00;28.10
40534;DHT22;26233;51.894;10.192;2023-03-01T15:38:31;9.90;28.90
40534;DHT22;26233;51.894;10.192;2023-03-01T15:41:02;9.80;28.80
40534;DHT22;26233;51.894;10.192;2023-03-01T15:43:38;9.60;28.80
40534;DHT22;26233;51.894;10.192;2023-03-01T15:46:17;9.50;28.70
40534;DHT22;26233;51.894;10.192;2023-03-01T15:48:50;9.40;28.80
40534;DHT22;26233;51.894;10.192;2023-03-01T15:51:22;9.30;28.90
40534;DHT22;26233;51.894;10.192;2023-03-01T15:53:58;9.20;28.90
40534;DHT22;26233;51.894;10.192;2023-03-01T15:56:26;9.10;29.50
40534;DHT22;26233;51.894;10.192;2023-03-01T15:58:57;9.00;29.00
40534;DHT22;26233;51.894;10.192;2023-03-01T16:01:26;9.00;29.00
40534;DHT22;26233;51.894;10.192;2023-03-01T16:03:54;8.90;29.10